createdAt,value
2022-08-12T00:01:14.567Z,25.96
2022-08-12T00:04:00.877Z,25.95
2022-08-12T00:06:47.745Z,25.96
2022-08-12T00:09:33.541Z,25.96
2022-08-12T00:12:19.788Z,25.95
2022-08-12T00:15:06.094Z,25.95
2022-08-12T00:17:52.865Z,25.94
2022-08-12T00:20:38.665Z,25.95
2022-08-12T00:23:25.065Z,25.94
2022-08-12T00:26:23.386Z,25.91
2022-08-12T00:29:12.559Z,25.85
2022-08-12T00:32:00.786Z,25.82
2022-08-12T00:34:49.606Z,25.77
2022-08-12T00:37:38.622Z,25.70
2022-08-12T00:40:26.857Z,25.65
2022-08-12T00:42:56.847Z,25.57
2022-08-12T00:45:25.047Z,25.57
2022-08-12T00:47:54.212Z,25.50
2022-08-12T00:50:24.176Z,25.48
2022-08-12T00:52:53.350Z,25.45
2022-08-12T00:55:21.538Z,25.41
2022-08-12T00:57:50.755Z,25.39
2022-08-12T01:00:25.403Z,25.35
2022-08-12T01:02:57.768Z,25.30
2022-08-12T01:05:44.969Z,25.26
2022-08-12T01:08:50.842Z,25.19
2022-08-12T01:11:34.880Z,25.11
2022-08-12T01:14:03.249Z,24.98
2022-08-12T01:16:31.431Z,24.96
2022-08-12T01:19:00.569Z,24.92
2022-08-12T01:21:27.970Z,24.90
2022-08-12T01:24:31.743Z,24.90
2022-08-12T01:27:01.612Z,24.86
2022-08-12T01:29:33.460Z,24.81
2022-08-12T01:32:09.070Z,24.75
2022-08-12T01:34:39.832Z,24.70
2022-08-12T01:37:10.102Z,24.59
2022-08-12T01:40:35.955Z,24.57
2022-08-12T01:42:47.854Z,24.48
2022-08-12T01:45:17.871Z,24.39
2022-08-12T01:48:04.965Z,24.34
2022-08-12T01:50:51.014Z,24.27
2022-08-12T01:53:21.223Z,24.26
2022-08-12T01:55:50.498Z,24.21
2022-08-12T01:58:57.511Z,24.17
2022-08-12T02:01:30.863Z,24.13
2022-08-12T02:04:32.738Z,24.05
2022-08-12T02:08:03.713Z,23.98
2022-08-12T02:11:21.758Z,23.96
2022-08-12T02:13:52.053Z,23.91
2022-08-12T02:16:54.844Z,23.91
2022-08-12T02:19:43.643Z,23.87
2022-08-12T02:22:32.381Z,23.85
2022-08-12T02:25:15.878Z,23.84
2022-08-12T02:27:46.658Z,23.84
2022-08-12T02:30:20.080Z,23.82
2022-08-12T02:32:50.689Z,23.78
2022-08-12T02:35:25.668Z,23.80
2022-08-12T02:38:01.015Z,23.81
2022-08-12T02:40:29.673Z,23.79
2022-08-12T02:43:38.378Z,23.77
2022-08-12T02:46:14.421Z,23.73
2022-08-12T02:48:51.115Z,23.73
2022-08-12T02:51:23.825Z,23.70
2022-08-12T02:54:04.343Z,23.74
2022-08-12T02:56:41.293Z,23.86
2022-08-12T02:59:12.489Z,23.94
2022-08-12T03:01:53.732Z,24.18
2022-08-12T03:04:44.812Z,24.26
2022-08-12T03:07:20.604Z,24.63
2022-08-12T03:10:04.320Z,24.89
2022-08-12T03:12:49.465Z,25.00
2022-08-12T03:15:23.048Z,24.96
2022-08-12T03:18:26.027Z,25.01
2022-08-12T03:20:58.624Z,25.29
2022-08-12T03:23:29.571Z,25.53
2022-08-12T03:26:01.021Z,25.68
2022-08-12T03:28:51.148Z,25.70
2022-08-12T03:31:25.019Z,26.03
2022-08-12T03:34:01.977Z,26.66
2022-08-12T03:36:35.532Z,27.34
2022-08-12T03:39:17.075Z,27.79
2022-08-12T03:41:57.994Z,27.71
2022-08-12T03:44:56.324Z,27.48
2022-08-12T03:47:48.302Z,27.22
2022-08-12T03:50:35.649Z,26.98
2022-08-12T03:53:24.795Z,26.79
2022-08-12T03:56:10.999Z,26.69
2022-08-12T03:58:58.334Z,26.37
2022-08-12T04:01:28.155Z,26.51
2022-08-12T04:03:55.939Z,26.54
2022-08-12T04:06:35.137Z,26.62
2022-08-12T04:09:16.467Z,26.68
2022-08-12T04:12:04.688Z,26.67
2022-08-12T04:14:33.119Z,26.62
2022-08-12T04:17:01.872Z,26.65
2022-08-12T04:19:30.155Z,26.84
2022-08-12T04:22:01.679Z,27.07
2022-08-12T04:24:38.137Z,27.39
2022-08-12T04:27:10.531Z,27.72
2022-08-12T04:30:30.291Z,28.64
2022-08-12T04:32:27.785Z,29.82
2022-08-12T04:34:56.196Z,30.77
2022-08-12T04:37:24.051Z,31.54
2022-08-12T04:39:52.925Z,31.96
2022-08-12T04:42:21.550Z,32.17
2022-08-12T04:44:49.137Z,32.66
2022-08-12T04:47:17.569Z,33.19
2022-08-12T04:49:48.944Z,33.64
2022-08-12T04:52:17.148Z,34.16
2022-08-12T04:54:45.634Z,34.45
2022-08-12T04:57:13.169Z,34.65
2022-08-12T04:59:48.098Z,34.91
2022-08-12T05:02:21.089Z,35.18
2022-08-12T05:05:00.761Z,35.48
2022-08-12T05:07:30.266Z,35.63
2022-08-12T05:10:01.828Z,35.70
2022-08-12T05:12:38.282Z,35.91
2022-08-12T05:15:19.751Z,36.13
2022-08-12T05:17:55.819Z,36.32
2022-08-12T05:20:26.218Z,36.60
2022-08-12T05:23:12.889Z,36.86
2022-08-12T05:25:49.877Z,36.70
2022-08-12T05:28:18.520Z,36.54
2022-08-12T05:30:46.613Z,36.64
2022-08-12T05:33:17.562Z,36.83
2022-08-12T05:35:47.923Z,37.01
2022-08-12T05:38:37.468Z,36.98
2022-08-12T05:41:19.339Z,36.66
2022-08-12T05:43:54.785Z,36.60
2022-08-12T05:46:24.095Z,36.91
2022-08-12T05:48:54.559Z,37.03
2022-08-12T05:51:40.178Z,37.17
2022-08-12T05:54:11.645Z,37.14
2022-08-12T05:56:41.742Z,37.11
2022-08-12T05:59:12.542Z,37.34
2022-08-12T06:02:10.417Z,37.67
2022-08-12T06:04:30.730Z,38.13
2022-08-12T06:06:58.622Z,38.03
2022-08-12T06:09:30.736Z,38.11
2022-08-12T06:12:05.712Z,38.18
2022-08-12T06:14:38.726Z,38.57
2022-08-12T06:17:09.505Z,39.06
2022-08-12T06:20:27.433Z,39.30
2022-08-12T06:22:28.623Z,39.39
2022-08-12T06:24:56.471Z,39.42
2022-08-12T06:27:24.442Z,39.53
2022-08-12T06:30:06.819Z,39.69
2022-08-12T06:32:42.909Z,39.99
2022-08-12T06:35:23.757Z,39.97
2022-08-12T06:37:57.989Z,40.14
2022-08-12T06:40:44.536Z,40.10
2022-08-12T06:43:13.404Z,40.12
2022-08-12T06:45:47.533Z,39.42
2022-08-12T06:48:16.727Z,39.17
2022-08-12T06:50:44.656Z,39.45
2022-08-12T06:53:13.449Z,39.04
2022-08-12T06:55:57.886Z,38.39
2022-08-12T06:58:26.050Z,37.55
2022-08-12T07:00:54.847Z,37.15
2022-08-12T07:03:28.890Z,37.55
2022-08-12T07:05:58.620Z,37.65
2022-08-12T07:08:36.368Z,37.98
2022-08-12T07:11:09.009Z,38.54
2022-08-12T07:14:02.338Z,38.53
2022-08-12T07:16:51.891Z,38.61
2022-08-12T07:19:20.644Z,38.70
2022-08-12T07:22:02.177Z,38.29
2022-08-12T07:24:31.125Z,38.17
2022-08-12T07:26:59.411Z,38.00
2022-08-12T07:30:03.764Z,38.37
2022-08-12T07:32:16.184Z,39.21
2022-08-12T07:34:43.639Z,39.92
2022-08-12T07:37:11.190Z,40.59
2022-08-12T07:39:50.937Z,41.19
2022-08-12T07:42:26.439Z,41.36
2022-08-12T07:44:56.726Z,41.58
2022-08-12T07:47:25.425Z,41.99
2022-08-12T07:50:04.722Z,42.15
2022-08-12T07:52:35.980Z,42.55
2022-08-12T07:55:04.783Z,42.78
2022-08-12T07:57:35.461Z,43.01
2022-08-12T08:00:06.977Z,43.16
2022-08-12T08:02:38.674Z,43.31
2022-08-12T08:05:07.031Z,43.22
2022-08-12T08:07:34.552Z,43.28
2022-08-12T08:10:07.145Z,43.38
2022-08-12T08:12:53.485Z,43.45
2022-08-12T08:15:44.447Z,43.49
2022-08-12T08:18:26.049Z,43.63
2022-08-12T08:20:56.017Z,42.72
2022-08-12T08:23:46.504Z,42.48
2022-08-12T08:26:22.933Z,42.71
2022-08-12T08:28:50.893Z,42.97
2022-08-12T08:31:19.033Z,43.34
2022-08-12T08:34:05.014Z,43.68
2022-08-12T08:36:37.312Z,43.81
2022-08-12T08:39:05.423Z,43.61
2022-08-12T08:42:15.455Z,43.72
2022-08-12T08:44:39.837Z,43.71
2022-08-12T08:47:08.810Z,43.57
2022-08-12T08:49:37.422Z,43.55
2022-08-12T08:52:06.960Z,43.52
2022-08-12T08:54:35.514Z,43.15
2022-08-12T08:57:05.455Z,42.51
2022-08-12T08:59:33.179Z,42.10
2022-08-12T09:02:03.629Z,41.83
2022-08-12T09:05:13.646Z,41.86
2022-08-12T09:07:51.972Z,42.00
2022-08-12T09:10:23.472Z,42.15
2022-08-12T09:13:22.931Z,41.96
2022-08-12T09:15:57.476Z,41.98
2022-08-12T09:18:33.215Z,42.23
2022-08-12T09:21:04.084Z,42.30
2022-08-12T09:23:58.325Z,42.36
2022-08-12T09:26:28.341Z,42.65
2022-08-12T09:29:00.702Z,42.85
2022-08-12T09:32:06.278Z,43.04
2022-08-12T09:34:29.520Z,42.98
2022-08-12T09:37:19.463Z,43.05
2022-08-12T09:40:06.479Z,42.71
2022-08-12T09:43:16.762Z,42.72
2022-08-12T09:46:14.344Z,42.79
2022-08-12T09:48:39.093Z,43.01
2022-08-12T09:51:21.625Z,43.20
2022-08-12T09:54:05.568Z,42.63
2022-08-12T09:57:01.038Z,41.70
2022-08-12T10:00:15.921Z,41.10
2022-08-12T10:02:42.114Z,40.60
2022-08-12T10:05:00.822Z,40.21
2022-08-12T10:07:39.370Z,40.04
2022-08-12T10:10:25.220Z,39.78
2022-08-12T10:13:34.449Z,39.23
2022-08-12T10:16:06.633Z,38.76
2022-08-12T10:18:51.829Z,38.44
2022-08-12T10:21:23.788Z,38.11
2022-08-12T10:23:56.761Z,37.98
2022-08-12T10:26:44.579Z,37.92
2022-08-12T10:30:01.617Z,37.99
2022-08-12T10:32:44.813Z,38.04
2022-08-12T10:35:10.031Z,38.14
2022-08-12T10:38:38.266Z,38.22
2022-08-12T10:40:33.789Z,38.40
2022-08-12T10:43:20.559Z,38.50
2022-08-12T10:45:58.529Z,38.56
2022-08-12T10:48:33.720Z,38.67
2022-08-12T10:52:02.887Z,38.78
2022-08-12T10:54:00.111Z,39.01
2022-08-12T10:56:34.481Z,39.00
2022-08-12T10:59:05.625Z,38.94
2022-08-12T11:04:14.356Z,39.03
2022-08-12T11:04:39.485Z,39.10
2022-08-12T11:08:34.801Z,39.11
2022-08-12T11:10:03.002Z,38.94
2022-08-12T11:12:55.830Z,38.90
2022-08-12T11:15:33.090Z,38.96
2022-08-12T11:18:18.256Z,38.83
2022-08-12T11:20:48.566Z,38.60
2022-08-12T11:23:25.126Z,38.34
2022-08-12T11:26:07.195Z,38.23
2022-08-12T11:28:38.070Z,38.25
2022-08-12T11:31:12.105Z,38.26
2022-08-12T11:34:06.372Z,38.38
2022-08-12T11:36:31.504Z,38.40
2022-08-12T11:39:04.454Z,38.50
2022-08-12T11:41:33.879Z,38.71
2022-08-12T11:44:34.909Z,38.62
2022-08-12T11:46:52.914Z,38.58
2022-08-12T11:49:30.668Z,38.60
2022-08-12T11:52:00.597Z,38.60
2022-08-12T11:54:29.747Z,38.58
2022-08-12T11:57:00.534Z,38.42
2022-08-12T12:02:20.794Z,38.52
2022-08-12T12:04:52.630Z,38.38
2022-08-12T12:08:36.314Z,38.32
2022-08-12T12:10:16.197Z,38.13
2022-08-12T12:12:49.392Z,38.08
2022-08-12T12:15:24.747Z,38.10
2022-08-12T12:17:56.030Z,38.05
2022-08-12T12:20:26.181Z,38.00
2022-08-12T12:22:58.223Z,38.02
2022-08-12T12:26:06.869Z,37.93
2022-08-12T12:28:37.155Z,37.84
2022-08-12T12:31:02.028Z,37.79
2022-08-12T12:33:57.124Z,37.76
2022-08-12T12:36:24.015Z,37.78
2022-08-12T12:38:56.852Z,37.85
2022-08-12T12:42:44.675Z,37.99
2022-08-12T12:44:13.342Z,37.91
2022-08-12T12:46:54.791Z,37.88
2022-08-12T12:49:27.493Z,37.91
2022-08-12T12:52:18.502Z,37.99
2022-08-12T12:54:53.021Z,38.01
2022-08-12T12:57:21.585Z,37.92
2022-08-12T13:00:18.695Z,37.80
2022-08-12T13:02:58.697Z,37.69
2022-08-12T13:05:42.496Z,37.68
2022-08-12T13:08:28.304Z,37.49
2022-08-12T13:11:05.129Z,37.57
2022-08-12T13:14:06.885Z,37.55
2022-08-12T13:16:23.075Z,37.51
2022-08-12T13:18:53.999Z,37.57
2022-08-12T13:21:33.368Z,37.55
2022-08-12T13:24:09.626Z,37.55
2022-08-12T13:26:40.807Z,37.55
2022-08-12T13:29:11.473Z,37.53
2022-08-12T13:31:46.443Z,37.46
2022-08-12T13:34:34.597Z,37.44
2022-08-12T13:37:09.199Z,37.32
2022-08-12T13:39:39.390Z,37.26
2022-08-12T13:42:13.893Z,37.20
2022-08-12T13:44:42.399Z,37.12
2022-08-12T13:47:19.480Z,37.05
2022-08-12T13:49:54.893Z,37.03
2022-08-12T13:52:23.993Z,36.98
2022-08-12T13:54:56.407Z,36.92
2022-08-12T13:57:26.711Z,36.85
2022-08-12T13:59:55.463Z,36.80
2022-08-12T14:02:23.516Z,36.70
2022-08-12T14:04:56.649Z,36.65
2022-08-12T14:07:26.081Z,36.58
2022-08-12T14:10:16.331Z,36.50
2022-08-12T14:12:54.715Z,36.43
2022-08-12T14:15:36.819Z,36.41
2022-08-12T14:18:08.703Z,36.41
2022-08-12T14:20:36.511Z,36.39
2022-08-12T14:24:01.496Z,36.38
2022-08-12T14:25:58.145Z,36.37
2022-08-12T14:28:26.627Z,36.33
2022-08-12T14:31:00.105Z,36.29
2022-08-12T14:33:44.426Z,36.24
2022-08-12T14:36:12.959Z,36.28
2022-08-12T14:38:46.270Z,36.25
2022-08-12T14:41:17.429Z,36.20
2022-08-12T14:44:04.498Z,36.21
2022-08-12T14:46:35.875Z,36.18
2022-08-12T14:49:27.479Z,36.12
2022-08-12T14:52:58.873Z,36.03
2022-08-12T14:57:00.122Z,36.01
2022-08-12T14:57:35.494Z,35.93
2022-08-12T15:00:23.790Z,35.85
2022-08-12T15:02:54.180Z,35.79
2022-08-12T15:06:04.951Z,35.69
2022-08-12T15:08:17.189Z,35.54
2022-08-12T15:10:50.151Z,35.38
2022-08-12T15:13:23.613Z,35.29
2022-08-12T15:15:53.077Z,35.16
2022-08-12T15:18:22.773Z,35.09
2022-08-12T15:20:54.743Z,34.99
2022-08-12T15:23:29.123Z,34.91
2022-08-12T15:26:06.118Z,34.80
2022-08-12T15:28:35.446Z,34.70
2022-08-12T15:31:21.292Z,34.61
2022-08-12T15:33:54.091Z,34.45
2022-08-12T15:36:54.143Z,34.40
2022-08-12T15:39:17.007Z,34.31
2022-08-12T15:41:50.219Z,34.23
2022-08-12T15:44:38.567Z,34.14
2022-08-12T15:47:07.163Z,34.06
2022-08-12T15:49:54.931Z,33.99
2022-08-12T15:52:27.530Z,33.91
2022-08-12T15:54:58.344Z,33.84
2022-08-12T15:57:27.809Z,33.76
2022-08-12T16:00:06.470Z,33.65
2022-08-12T16:02:50.509Z,33.62
2022-08-12T16:06:12.374Z,33.53
2022-08-12T16:08:17.124Z,33.46
2022-08-12T16:10:46.314Z,33.38
2022-08-12T16:13:25.227Z,33.35
2022-08-12T16:16:03.920Z,33.30
2022-08-12T16:18:39.932Z,33.24
2022-08-12T16:21:52.128Z,33.14
2022-08-12T16:24:02.193Z,33.11
2022-08-12T16:26:35.136Z,33.07
2022-08-12T16:29:15.235Z,33.03
2022-08-12T16:31:45.563Z,32.98
2022-08-12T16:34:25.738Z,32.94
2022-08-12T16:37:09.703Z,32.87
2022-08-12T16:40:01.744Z,32.82
2022-08-12T16:42:30.889Z,32.76
2022-08-12T16:45:02.146Z,32.69
2022-08-12T16:47:58.169Z,32.58
2022-08-12T16:50:19.764Z,32.53
2022-08-12T16:52:51.958Z,32.54
2022-08-12T16:55:23.698Z,32.48
2022-08-12T16:57:54.237Z,32.42
2022-08-12T17:00:24.388Z,32.38
2022-08-12T17:02:58.146Z,32.33
2022-08-12T17:05:31.069Z,32.25
2022-08-12T17:08:01.003Z,32.19
2022-08-12T17:10:36.546Z,32.14
2022-08-12T17:13:09.521Z,32.09
2022-08-12T17:15:57.169Z,32.06
2022-08-12T17:18:42.383Z,31.99
2022-08-12T17:21:17.575Z,31.96
2022-08-12T17:23:53.586Z,31.93
2022-08-12T17:26:30.831Z,31.89
2022-08-12T17:29:00.439Z,31.84
2022-08-12T17:32:00.223Z,31.79
2022-08-12T17:34:38.553Z,31.76
2022-08-12T17:37:06.729Z,31.72
2022-08-12T17:40:13.611Z,31.69
2022-08-12T17:42:32.857Z,31.63
2022-08-12T17:45:17.315Z,31.57
2022-08-12T17:48:01.000Z,31.51
2022-08-12T17:50:35.078Z,31.46
2022-08-12T17:53:03.703Z,31.41
2022-08-12T17:55:40.980Z,31.34
2022-08-12T17:58:14.022Z,31.25
2022-08-12T18:00:46.303Z,31.19
2022-08-12T18:04:04.167Z,31.17
2022-08-12T18:06:13.709Z,31.14
2022-08-12T18:08:54.604Z,31.09
2022-08-12T18:12:03.232Z,31.04
2022-08-12T18:14:32.623Z,30.98
2022-08-12T18:17:02.583Z,30.91
2022-08-12T18:19:48.543Z,30.89
2022-08-12T18:22:22.290Z,30.84
2022-08-12T18:26:10.076Z,30.76
2022-08-12T18:28:15.746Z,30.70
2022-08-12T18:30:52.763Z,30.61
2022-08-12T18:33:24.018Z,30.59
2022-08-12T18:35:53.684Z,30.55
2022-08-12T18:38:25.614Z,30.51
2022-08-12T18:41:21.742Z,30.46
2022-08-12T18:44:02.905Z,30.41
2022-08-12T18:46:53.879Z,30.41
2022-08-12T18:49:39.105Z,30.36
2022-08-12T18:52:11.706Z,30.33
2022-08-12T18:54:49.515Z,30.30
2022-08-12T18:57:45.661Z,30.23
2022-08-12T19:00:20.979Z,30.25
2022-08-12T19:02:51.127Z,30.21
2022-08-12T19:05:18.737Z,30.21
2022-08-12T19:08:01.723Z,30.15
2022-08-12T19:10:31.925Z,30.13
2022-08-12T19:13:23.434Z,30.05
2022-08-12T19:15:58.265Z,30.06
2022-08-12T19:18:31.864Z,30.03
2022-08-12T19:21:06.342Z,29.96
2022-08-12T19:23:35.599Z,29.95
2022-08-12T19:26:10.732Z,29.93
2022-08-12T19:28:41.148Z,29.88
2022-08-12T19:31:55.682Z,29.85
2022-08-12T19:38:02.992Z,29.59
2022-08-12T19:40:20.355Z,29.44
2022-08-12T19:43:19.150Z,29.40
2022-08-12T19:45:51.656Z,29.42
2022-08-12T19:48:21.804Z,29.44
2022-08-12T19:50:53.118Z,29.49
2022-08-12T19:53:24.640Z,29.55
2022-08-12T19:55:54.135Z,29.61
2022-08-12T19:58:23.323Z,29.67
2022-08-12T20:00:53.620Z,29.72
2022-08-12T20:03:38.847Z,29.74
2022-08-12T20:06:13.868Z,29.74
2022-08-12T20:08:47.897Z,29.74
2022-08-12T20:12:11.083Z,29.73
2022-08-12T20:14:05.825Z,29.71
2022-08-12T20:20:05.612Z,29.73
2022-08-12T20:22:29.569Z,29.74
2022-08-12T20:25:07.347Z,29.74
2022-08-12T20:28:04.060Z,29.72
2022-08-12T20:30:52.615Z,29.65
2022-08-12T20:33:17.882Z,29.63
2022-08-12T20:36:13.837Z,29.56
2022-08-12T20:38:40.181Z,29.51
2022-08-12T20:41:16.811Z,29.44
2022-08-12T20:43:51.933Z,29.35
2022-08-12T20:46:20.136Z,29.27
2022-08-12T20:48:54.806Z,29.22
2022-08-12T20:51:27.610Z,29.14
2022-08-12T20:53:59.115Z,29.12
2022-08-12T20:56:34.500Z,29.10
2022-08-12T20:59:14.851Z,29.07
2022-08-12T21:01:48.823Z,29.04
2022-08-12T21:04:37.072Z,28.99
2022-08-12T21:07:09.145Z,28.94
2022-08-12T21:09:44.688Z,28.88
2022-08-12T21:12:31.297Z,28.80
2022-08-12T21:15:17.542Z,28.70
2022-08-12T21:18:15.589Z,28.61
2022-08-12T21:20:54.613Z,28.49
2022-08-12T21:23:23.261Z,28.43
2022-08-12T21:26:01.139Z,28.29
2022-08-12T21:28:32.002Z,28.23
2022-08-12T21:32:35.237Z,28.10
2022-08-12T21:34:07.359Z,28.04
2022-08-12T21:36:39.732Z,27.93
2022-08-12T21:39:20.379Z,27.85
2022-08-12T21:41:51.408Z,27.77
2022-08-12T21:45:43.965Z,27.62
2022-08-12T21:47:22.479Z,27.56
2022-08-12T21:50:06.124Z,27.52
2022-08-12T21:52:40.836Z,27.43
2022-08-12T21:55:18.495Z,27.34
2022-08-12T21:57:54.404Z,27.10
2022-08-12T22:00:32.947Z,27.18
2022-08-12T22:04:02.061Z,27.10
2022-08-12T22:06:25.911Z,27.06
2022-08-12T22:09:04.022Z,27.00
2022-08-12T22:11:42.024Z,26.94
2022-08-12T22:14:21.918Z,26.89
2022-08-12T22:16:53.397Z,26.82
2022-08-12T22:19:22.810Z,26.79
2022-08-12T22:21:53.752Z,26.74
2022-08-12T22:24:26.347Z,26.67
2022-08-12T22:27:18.153Z,26.54
2022-08-12T22:30:16.850Z,26.51
2022-08-12T22:32:50.711Z,26.38
2022-08-12T22:35:56.682Z,26.35
2022-08-12T22:38:25.524Z,26.35
2022-08-12T22:41:01.911Z,26.34
2022-08-12T22:44:00.578Z,26.31
2022-08-12T22:46:52.904Z,26.26
2022-08-12T22:49:37.175Z,26.21
2022-08-12T22:52:18.515Z,26.17
2022-08-12T22:55:02.990Z,26.13
2022-08-12T22:57:49.134Z,26.06
2022-08-12T23:00:24.705Z,26.01
2022-08-12T23:03:00.577Z,25.97
2022-08-12T23:05:36.897Z,25.93
2022-08-12T23:08:29.875Z,25.82
2022-08-12T23:10:59.317Z,25.82
2022-08-12T23:13:45.594Z,25.81
2022-08-12T23:16:28.477Z,25.80
2022-08-12T23:19:09.284Z,25.82
2022-08-12T23:22:03.200Z,25.79
2022-08-12T23:24:29.934Z,25.77
2022-08-12T23:27:18.256Z,25.72
2022-08-12T23:30:05.924Z,25.66
2022-08-12T23:32:37.094Z,25.63
2022-08-12T23:35:06.997Z,25.57
2022-08-12T23:37:47.389Z,25.59
2022-08-12T23:40:22.544Z,25.61
2022-08-12T23:42:57.161Z,25.61
2022-08-12T23:45:30.865Z,25.58
2022-08-12T23:48:02.583Z,25.61
2022-08-12T23:50:34.007Z,25.59
2022-08-12T23:53:17.099Z,25.58
2022-08-12T23:55:50.120Z,25.58
2022-08-12T23:58:26.016Z,25.59
